Time;durP1;ratioP1;P1;durP2;ratioP2;P2;SDS_P1;SDS_P2;PMS_P1;PMS_P2;Temp;Humidity;BMP_temperature;BMP_pressure;BME280_temperature;BME280_humidity;BME280_pressure;Samples;Min_cycle;Max_cycle;Signal;HPM_P1;HPM_P2
2022/11/14 00:00:10;;;;;;;27.73;16.35;;;7.20;99.90;;;;;;5014718;28;20045;-67
2022/11/14 00:02:37;;;;;;;27.55;15.93;;;7.10;99.90;;;;;;5015315;28;20088;-67
2022/11/14 00:05:03;;;;;;;24.85;16.25;;;7.20;99.90;;;;;;4999186;28;20037;-67
2022/11/14 00:07:30;;;;;;;27.08;15.02;;;7.30;99.90;;;;;;5014842;28;20038;-67
2022/11/14 00:09:55;;;;;;;26.27;15.85;;;7.30;99.90;;;;;;5013407;28;20038;-67
2022/11/14 00:12:21;;;;;;;30.17;17.10;;;7.30;99.90;;;;;;5013983;28;20050;-67
2022/11/14 00:14:47;;;;;;;27.08;16.13;;;7.40;99.90;;;;;;5015289;28;20045;-67
2022/11/14 00:17:12;;;;;;;26.83;16.95;;;7.40;99.90;;;;;;5031103;28;20125;-67
2022/11/14 00:19:38;;;;;;;26.13;15.77;;;7.20;99.90;;;;;;5014526;28;20045;-68
2022/11/14 00:22:04;;;;;;;29.02;17.88;;;7.30;99.90;;;;;;4999036;28;20066;-67
2022/11/14 00:24:29;;;;;;;28.83;17.30;;;7.20;99.90;;;;;;4995009;28;20046;-67
2022/11/14 00:26:55;;;;;;;28.52;17.58;;;7.20;99.90;;;;;;4979306;28;20502;-67
2022/11/14 00:29:20;;;;;;;28.80;18.13;;;7.30;99.90;;;;;;4995712;28;20050;-67
2022/11/14 00:31:46;;;;;;;30.48;18.50;;;7.20;99.90;;;;;;4981632;28;20046;-67
2022/11/14 00:34:11;;;;;;;27.25;17.35;;;7.20;99.90;;;;;;5014974;28;20117;-67
2022/11/14 00:36:37;;;;;;;31.17;19.58;;;7.20;99.90;;;;;;4998618;28;20049;-67
2022/11/14 00:39:03;;;;;;;29.17;18.23;;;7.20;99.90;;;;;;4998724;28;20092;-67
2022/11/14 00:41:29;;;;;;;26.92;15.82;;;7.20;99.90;;;;;;4992105;28;20030;-67
2022/11/14 00:43:55;;;;;;;27.65;17.45;;;7.30;99.90;;;;;;4995271;28;20118;-67
2022/11/14 00:46:20;;;;;;;28.00;16.80;;;7.40;99.90;;;;;;4978961;28;20038;-67
2022/11/14 00:48:46;;;;;;;30.67;20.42;;;7.40;99.90;;;;;;5012420;28;20121;-67
2022/11/14 00:51:11;;;;;;;30.70;19.38;;;7.40;99.90;;;;;;5014607;28;20072;-67
2022/11/14 00:53:37;;;;;;;27.42;17.75;;;7.40;99.90;;;;;;4994945;28;20394;-67
2022/11/14 00:56:03;;;;;;;32.75;20.38;;;7.50;99.90;;;;;;5013348;28;20042;-67
2022/11/14 00:58:29;;;;;;;28.17;18.52;;;7.40;99.90;;;;;;5014440;28;20053;-67
2022/11/14 01:00:55;;;;;;;30.67;19.75;;;7.50;99.90;;;;;;5013909;28;20469;-67
2022/11/14 01:03:21;;;;;;;31.30;20.08;;;7.50;99.90;;;;;;4997836;28;20049;-67
2022/11/14 01:05:48;;;;;;;38.42;23.08;;;7.50;99.90;;;;;;5014477;28;20038;-67
2022/11/14 01:08:16;;;;;;;34.75;23.00;;;7.40;99.90;;;;;;4997706;28;20137;-67
2022/11/14 01:10:44;;;;;;;33.97;21.48;;;7.30;99.90;;;;;;5014589;28;20050;-67
2022/11/14 01:13:11;;;;;;;34.47;22.30;;;7.40;99.90;;;;;;4994101;28;20054;-67
2022/11/14 01:15:41;;;;;;;33.67;21.63;;;7.40;99.90;;;;;;4978718;28;20115;-67
2022/11/14 01:18:12;;;;;;;35.05;22.73;;;7.40;99.90;;;;;;5007537;28;20057;-67
2022/11/14 01:20:39;;;;;;;34.08;23.98;;;7.40;99.90;;;;;;4997793;28;20042;-67
2022/11/14 01:23:05;;;;;;;36.65;23.80;;;7.40;99.90;;;;;;5010424;28;20041;-67
2022/11/14 01:25:39;;;;;;;36.08;24.08;;;7.40;99.90;;;;;;5012411;28;20042;-67
2022/11/14 01:28:10;;;;;;;37.63;23.83;;;7.40;99.90;;;;;;5014243;28;20037;-67
2022/11/14 01:30:36;;;;;;;36.90;24.30;;;7.30;99.90;;;;;;4997640;28;20096;-67
2022/11/14 01:33:01;;;;;;;38.15;24.02;;;7.30;99.90;;;;;;5013366;28;20039;-67
2022/11/14 01:35:27;;;;;;;41.42;26.25;;;7.40;99.90;;;;;;5013862;28;20410;-67
2022/11/14 01:37:53;;;;;;;40.08;26.67;;;7.40;99.90;;;;;;5012479;28;20056;-67
2022/11/14 01:40:19;;;;;;;41.03;27.80;;;7.30;99.90;;;;;;5013686;28;20038;-67
2022/11/14 01:43:09;;;;;;;43.10;27.77;;;7.30;99.90;;;;;;4997595;28;20105;-67
2022/11/14 01:45:56;;;;;;;44.67;29.13;;;7.20;99.90;;;;;;5012987;28;20038;-67
2022/11/14 01:48:34;;;;;;;43.10;27.48;;;7.20;99.90;;;;;;5013590;28;20049;-67
2022/11/14 01:51:08;;;;;;;44.47;28.75;;;7.20;99.90;;;;;;5013583;28;20054;-67
2022/11/14 01:53:33;;;;;;;42.53;27.27;;;7.10;99.90;;;;;;4994691;28;20066;-67
2022/11/14 01:56:04;;;;;;;45.85;29.80;;;7.20;99.90;;;;;;4993601;28;20112;-67
2022/11/14 01:58:32;;;;;;;42.25;27.40;;;7.20;99.90;;;;;;4989835;28;20033;-67
2022/11/14 02:00:58;;;;;;;44.40;29.33;;;7.10;99.90;;;;;;5010471;28;20390;-67
2022/11/14 02:03:24;;;;;;;42.63;27.85;;;7.00;99.90;;;;;;5007816;28;20060;-67
2022/11/14 02:05:51;;;;;;;50.20;29.77;;;7.10;99.90;;;;;;5008544;28;20042;-67
2022/11/14 02:08:17;;;;;;;49.03;32.05;;;7.00;99.90;;;;;;4997216;28;20033;-67
2022/11/14 02:10:43;;;;;;;44.67;28.15;;;7.00;99.90;;;;;;5008480;28;20038;-67
2022/11/14 02:13:08;;;;;;;46.08;28.60;;;7.10;99.90;;;;;;4996132;28;20049;-66
2022/11/14 02:15:35;;;;;;;50.45;31.20;;;7.00;99.90;;;;;;5009622;28;20069;-67
2022/11/14 02:18:01;;;;;;;50.65;31.73;;;6.90;99.90;;;;;;4994674;28;21304;-67
2022/11/14 02:20:32;;;;;;;49.22;30.65;;;7.00;99.90;;;;;;5008778;28;20034;-67
2022/11/14 02:22:58;;;;;;;49.33;30.55;;;7.00;99.90;;;;;;4996205;28;20046;-67
2022/11/14 02:25:24;;;;;;;51.17;30.35;;;7.00;99.90;;;;;;5010407;28;20038;-67
2022/11/14 02:27:50;;;;;;;50.13;30.40;;;6.90;99.90;;;;;;5012108;28;20046;-67
2022/11/14 02:30:21;;;;;;;50.10;30.77;;;7.00;99.90;;;;;;5010889;28;20042;-67
2022/11/14 02:32:47;;;;;;;47.67;29.70;;;7.00;99.90;;;;;;5010853;28;20445;-67
2022/11/14 02:35:12;;;;;;;46.83;28.10;;;7.10;99.90;;;;;;5012866;28;20042;-67
2022/11/14 02:37:39;;;;;;;49.38;31.05;;;7.10;99.90;;;;;;4990856;28;20065;-67
2022/11/14 02:40:05;;;;;;;47.13;29.85;;;7.20;99.90;;;;;;4976855;28;20049;-67
2022/11/14 02:42:31;;;;;;;52.83;31.65;;;7.10;99.90;;;;;;4990397;28;20042;-67
2022/11/14 02:44:57;;;;;;;48.67;31.17;;;7.10;99.90;;;;;;5005592;28;20116;-67
2022/11/14 02:47:23;;;;;;;50.08;29.92;;;7.00;99.90;;;;;;5011746;28;20029;-67
2022/11/14 02:49:49;;;;;;;52.95;31.00;;;7.10;99.90;;;;;;4994279;28;20041;-67
2022/11/14 02:52:16;;;;;;;48.95;30.17;;;7.10;99.90;;;;;;5009591;28;20056;-67
2022/11/14 02:54:41;;;;;;;53.22;30.33;;;7.20;99.90;;;;;;4994351;28;20124;-67
2022/11/14 02:57:07;;;;;;;49.00;30.83;;;7.20;99.90;;;;;;4996386;28;20109;-67
2022/11/14 02:59:32;;;;;;;55.20;32.65;;;7.30;99.90;;;;;;5006043;28;20045;-67
2022/11/14 03:01:58;;;;;;;49.33;30.98;;;7.20;99.90;;;;;;5010232;28;20121;-67
2022/11/14 03:04:23;;;;;;;45.72;29.42;;;7.20;99.90;;;;;;4999923;28;20056;-67
2022/11/14 03:06:49;;;;;;;42.40;25.73;;;7.20;99.90;;;;;;5009776;28;20418;-67
2022/11/14 03:09:15;;;;;;;50.60;33.33;;;7.20;99.90;;;;;;4990111;28;20136;-67
2022/11/14 03:11:40;;;;;;;43.90;27.55;;;7.10;99.90;;;;;;4996938;28;20045;-67
2022/11/14 03:14:06;;;;;;;48.50;28.70;;;7.10;99.90;;;;;;4995375;28;20046;-67
2022/11/14 03:16:31;;;;;;;49.15;28.75;;;7.20;99.90;;;;;;5010429;28;20065;-67
2022/11/14 03:18:57;;;;;;;45.75;28.27;;;7.40;99.90;;;;;;4989103;28;20466;-67
2022/11/14 03:21:23;;;;;;;47.95;30.98;;;7.40;99.90;;;;;;5007264;28;20080;-67
2022/11/14 03:23:48;;;;;;;46.35;29.27;;;7.30;99.90;;;;;;4983395;28;20080;-67
2022/11/14 03:26:14;;;;;;;48.00;29.50;;;7.20;99.90;;;;;;5011264;28;20458;-66
2022/11/14 03:28:41;;;;;;;43.03;27.17;;;7.20;99.90;;;;;;5007628;28;20034;-67
2022/11/14 03:31:09;;;;;;;45.42;28.30;;;7.20;99.90;;;;;;5011693;28;20041;-67
2022/11/14 03:33:35;;;;;;;48.75;30.83;;;7.30;99.90;;;;;;4998371;28;20038;-67
2022/11/14 03:36:01;;;;;;;48.70;30.65;;;7.20;99.90;;;;;;4993777;28;20034;-67
2022/11/14 03:38:27;;;;;;;47.28;28.77;;;7.30;99.90;;;;;;5001386;28;20030;-67
2022/11/14 03:40:52;;;;;;;47.47;29.88;;;7.20;99.90;;;;;;5010653;28;20504;-67
2022/11/14 03:43:20;;;;;;;47.65;29.25;;;7.30;99.90;;;;;;4994843;28;20045;-67
2022/11/14 03:45:46;;;;;;;49.03;31.20;;;7.30;99.90;;;;;;4994532;28;20042;-67
2022/11/14 03:48:12;;;;;;;47.50;30.70;;;7.30;99.90;;;;;;5011175;28;20124;-67
2022/11/14 03:50:38;;;;;;;43.35;26.15;;;7.30;99.90;;;;;;4990527;28;20208;-67
2022/11/14 03:53:04;;;;;;;42.13;27.38;;;7.20;99.90;;;;;;5000402;28;20046;-67
2022/11/14 03:55:29;;;;;;;49.63;29.48;;;7.30;99.90;;;;;;4991484;28;20103;-67
2022/11/14 03:57:55;;;;;;;45.15;28.23;;;7.30;99.90;;;;;;5010728;28;20044;-67
2022/11/14 04:00:21;;;;;;;44.13;26.60;;;7.40;99.90;;;;;;5009904;28;20405;-67
2022/11/14 04:02:46;;;;;;;47.25;29.42;;;7.40;99.90;;;;;;4986338;28;20121;-67
2022/11/14 04:05:12;;;;;;;46.65;28.98;;;7.30;99.90;;;;;;5009370;28;20506;-67
2022/11/14 04:07:38;;;;;;;47.88;29.52;;;7.40;99.90;;;;;;4988534;28;20390;-67
2022/11/14 04:10:04;;;;;;;46.65;30.52;;;7.30;99.90;;;;;;4993714;28;20045;-67
2022/11/14 04:12:30;;;;;;;39.42;23.75;;;7.30;99.90;;;;;;5013037;28;20046;-67
2022/11/14 04:14:56;;;;;;;43.63;27.00;;;7.30;99.90;;;;;;4994953;28;20050;-67
2022/11/14 04:17:21;;;;;;;41.47;26.20;;;7.40;99.90;;;;;;5012422;28;20124;-67
2022/11/14 04:19:47;;;;;;;46.03;28.17;;;7.40;99.90;;;;;;4996768;28;20069;-67
2022/11/14 04:22:12;;;;;;;43.72;28.63;;;7.30;99.90;;;;;;5006235;28;20034;-67
2022/11/14 04:24:38;;;;;;;43.40;26.58;;;7.30;99.90;;;;;;4997726;28;20401;-67
2022/11/14 04:27:03;;;;;;;44.55;28.50;;;7.40;99.90;;;;;;4997365;28;20029;-67
2022/11/14 04:29:29;;;;;;;44.90;27.52;;;7.30;99.90;;;;;;4997121;28;20048;-68
2022/11/14 04:31:54;;;;;;;40.55;27.25;;;7.20;99.90;;;;;;5013289;28;20457;-68
2022/11/14 04:34:20;;;;;;;45.20;29.27;;;7.20;99.90;;;;;;4995841;28;20042;-68
2022/11/14 04:36:46;;;;;;;43.50;28.92;;;7.20;99.90;;;;;;4994601;28;20125;-67
2022/11/14 04:39:11;;;;;;;43.10;28.65;;;7.20;99.90;;;;;;4996460;28;20538;-67
2022/11/14 04:41:37;;;;;;;44.00;28.48;;;7.20;99.90;;;;;;5013277;28;20409;-67
2022/11/14 04:44:02;;;;;;;40.50;26.00;;;7.20;99.90;;;;;;5005292;28;20034;-67
2022/11/14 04:46:28;;;;;;;40.92;27.17;;;7.20;99.90;;;;;;4997617;28;20125;-67
2022/11/14 04:48:53;;;;;;;43.60;29.05;;;7.30;99.90;;;;;;5014784;28;20037;-67
2022/11/14 04:51:19;;;;;;;42.15;28.80;;;7.30;99.90;;;;;;4988064;28;20057;-67
2022/11/14 04:53:44;;;;;;;40.05;26.15;;;7.30;99.90;;;;;;5003795;28;20092;-67
2022/11/14 04:56:10;;;;;;;39.30;24.77;;;7.30;99.90;;;;;;4993219;28;20064;-67
2022/11/14 04:58:35;;;;;;;44.90;28.85;;;7.30;99.90;;;;;;4981420;28;20049;-67
2022/11/14 05:01:08;;;;;;;41.17;26.50;;;7.20;99.90;;;;;;5013739;28;20049;-67
2022/11/14 05:03:34;;;;;;;43.45;26.92;;;7.30;99.90;;;;;;4996488;28;20077;-67
2022/11/14 05:06:00;;;;;;;40.90;27.10;;;7.30;99.90;;;;;;5014175;28;20490;-67
2022/11/14 05:08:26;;;;;;;42.63;27.63;;;7.30;99.90;;;;;;5028173;28;20077;-68
2022/11/14 05:10:51;;;;;;;41.08;26.60;;;7.20;99.90;;;;;;4997302;28;20172;-67
2022/11/14 05:13:17;;;;;;;44.38;29.70;;;7.30;99.90;;;;;;4994895;28;20029;-67
2022/11/14 05:15:42;;;;;;;46.03;29.85;;;7.20;99.90;;;;;;5013344;28;20065;-67
2022/11/14 05:18:08;;;;;;;42.38;27.83;;;7.20;99.90;;;;;;5012754;28;20068;-67
2022/11/14 05:20:33;;;;;;;42.58;28.08;;;7.10;99.90;;;;;;4996738;28;20041;-67
2022/11/14 05:22:59;;;;;;;46.00;28.08;;;7.20;99.90;;;;;;5012220;28;20042;-67
2022/11/14 05:25:24;;;;;;;48.00;29.98;;;7.20;99.90;;;;;;5011883;28;20073;-67
2022/11/14 05:27:50;;;;;;;45.38;29.10;;;7.20;99.90;;;;;;5011576;28;20469;-67
2022/11/14 05:30:16;;;;;;;42.88;28.80;;;7.30;99.90;;;;;;5027827;28;20054;-67
2022/11/14 05:32:41;;;;;;;43.50;27.27;;;7.20;99.90;;;;;;5013309;28;20041;-67
2022/11/14 05:35:07;;;;;;;42.10;27.23;;;7.20;99.90;;;;;;5010935;28;20049;-67
2022/11/14 05:37:34;;;;;;;32.95;18.50;;;7.30;99.90;;;;;;5013052;28;20062;-67
2022/11/14 05:39:59;;;;;;;37.45;23.58;;;7.30;99.90;;;;;;5012052;28;20072;-67
2022/11/14 05:42:26;;;;;;;45.05;27.77;;;7.40;99.90;;;;;;5007045;28;20038;-67
2022/11/14 05:44:52;;;;;;;45.83;28.92;;;7.40;99.90;;;;;;4989694;28;20034;-67
2022/11/14 05:47:17;;;;;;;48.25;29.58;;;7.20;99.90;;;;;;5010994;28;20124;-67
2022/11/14 05:49:43;;;;;;;47.17;29.45;;;7.10;99.90;;;;;;4994633;28;20077;-67
2022/11/14 05:52:09;;;;;;;45.38;29.90;;;7.10;99.90;;;;;;5007412;28;20038;-67
2022/11/14 05:54:35;;;;;;;48.63;30.83;;;7.20;99.90;;;;;;4997095;28;20041;-67
2022/11/14 05:57:00;;;;;;;47.33;27.30;;;7.10;99.90;;;;;;4995073;28;20496;-67
2022/11/14 05:59:26;;;;;;;46.95;29.02;;;7.10;99.90;;;;;;5012785;28;20030;-67
2022/11/14 06:01:52;;;;;;;45.47;29.70;;;7.20;99.90;;;;;;4994951;28;20041;-67
2022/11/14 06:04:18;;;;;;;51.20;30.25;;;7.20;99.90;;;;;;4995772;28;20100;-67
2022/11/14 06:06:43;;;;;;;45.08;28.75;;;7.10;99.90;;;;;;4991835;28;20136;-67
2022/11/14 06:09:09;;;;;;;48.22;30.35;;;7.10;99.90;;;;;;4992595;28;20038;-67
2022/11/14 06:11:35;;;;;;;46.45;28.27;;;7.10;99.90;;;;;;5006729;28;20100;-67
2022/11/14 06:14:00;;;;;;;47.38;28.30;;;7.10;99.90;;;;;;4993862;28;20042;-67
2022/11/14 06:16:26;;;;;;;53.22;31.63;;;7.00;99.90;;;;;;5012581;28;20052;-68
2022/11/14 06:18:52;;;;;;;47.83;29.85;;;7.00;99.90;;;;;;4994963;28;20489;-67
2022/11/14 06:21:21;;;;;;;53.40;30.15;;;6.90;99.90;;;;;;4994303;28;20390;-67
2022/11/14 06:23:47;;;;;;;49.97;30.17;;;6.80;99.90;;;;;;4996936;28;20402;-67
2022/11/14 06:26:23;;;;;;;51.78;30.05;;;7.00;99.90;;;;;;5010803;28;20500;-67
2022/11/14 06:28:50;;;;;;;52.55;30.58;;;7.00;99.90;;;;;;4996916;28;20390;-67
2022/11/14 06:31:17;;;;;;;49.85;30.65;;;6.90;99.90;;;;;;4995182;28;20042;-67
2022/11/14 06:33:43;;;;;;;47.85;27.88;;;6.90;99.90;;;;;;4998056;28;20046;-67
2022/11/14 06:36:09;;;;;;;46.65;29.67;;;7.00;99.90;;;;;;4995374;28;20483;-67
2022/11/14 06:38:37;;;;;;;50.85;31.60;;;7.10;99.90;;;;;;4993387;28;20087;-67
2022/11/14 06:41:03;;;;;;;50.42;30.05;;;7.00;99.90;;;;;;4992282;28;20034;-67
2022/11/14 06:43:32;;;;;;;49.78;30.60;;;7.00;99.90;;;;;;4979206;28;20045;-67
2022/11/14 06:45:57;;;;;;;51.92;31.63;;;6.90;99.90;;;;;;4988818;28;20093;-67
2022/11/14 06:48:23;;;;;;;51.72;31.05;;;6.90;99.90;;;;;;4997382;28;20038;-67
2022/11/14 06:50:52;;;;;;;50.38;30.70;;;6.80;99.90;;;;;;5006096;28;20042;-67
2022/11/14 06:53:18;;;;;;;54.42;31.00;;;6.90;99.90;;;;;;5009750;28;20482;-67
2022/11/14 06:55:59;;;;;;;51.15;31.55;;;6.90;99.90;;;;;;5011564;28;20038;-67
2022/11/14 06:58:29;;;;;;;54.42;30.90;;;6.80;99.90;;;;;;4991605;28;20083;-67
2022/11/14 07:00:55;;;;;;;53.15;30.95;;;6.80;99.90;;;;;;5006162;28;20034;-67
2022/11/14 07:03:21;;;;;;;54.08;30.98;;;6.80;99.90;;;;;;4995892;28;20054;-67
2022/11/14 07:05:47;;;;;;;52.90;31.30;;;6.80;99.90;;;;;;5004946;28;20049;-68
2022/11/14 07:08:13;;;;;;;53.13;30.42;;;6.80;99.90;;;;;;5019942;28;20034;-68
2022/11/14 07:10:39;;;;;;;57.22;31.90;;;6.80;99.90;;;;;;5005702;28;20515;-67
2022/11/14 07:13:05;;;;;;;55.63;31.85;;;6.80;99.90;;;;;;5007638;28;20124;-67
2022/11/14 07:15:30;;;;;;;53.50;29.80;;;6.90;99.90;;;;;;4994289;28;20041;-67
2022/11/14 07:17:57;;;;;;;57.65;31.70;;;6.90;99.90;;;;;;4984737;28;20030;-67
2022/11/14 07:20:23;;;;;;;58.72;33.25;;;6.80;99.90;;;;;;4991442;28;20046;-67
2022/11/14 07:22:48;;;;;;;57.97;30.70;;;6.90;99.90;;;;;;5000482;28;20271;-67
2022/11/14 07:25:14;;;;;;;51.67;30.15;;;6.90;99.90;;;;;;4998964;28;20053;-67
2022/11/14 07:27:40;;;;;;;55.28;31.08;;;6.90;99.90;;;;;;4990874;28;20482;-67
2022/11/14 07:30:08;;;;;;;55.72;30.35;;;6.80;99.90;;;;;;5025027;28;20040;-67
2022/11/14 07:32:34;;;;;;;54.00;29.67;;;6.70;99.90;;;;;;5003417;28;20038;-67
2022/11/14 07:34:59;;;;;;;50.90;29.17;;;6.70;99.90;;;;;;5011477;28;20045;-67
2022/11/14 07:37:25;;;;;;;49.03;28.85;;;6.80;99.90;;;;;;5008779;28;20576;-67
2022/11/14 07:39:50;;;;;;;50.55;29.00;;;6.70;99.90;;;;;;5010016;28;20453;-67
2022/11/14 07:42:16;;;;;;;54.22;28.60;;;6.70;99.90;;;;;;4998801;28;20038;-67
2022/11/14 07:44:41;;;;;;;49.70;29.08;;;6.70;99.90;;;;;;5000786;28;20125;-67
2022/11/14 07:47:07;;;;;;;46.90;27.75;;;6.70;99.90;;;;;;4992111;28;20038;-67
2022/11/14 07:49:33;;;;;;;48.08;27.17;;;6.70;99.90;;;;;;4993286;28;20045;-67
2022/11/14 07:51:58;;;;;;;51.40;29.52;;;6.70;99.90;;;;;;4992737;28;20084;-67
2022/11/14 07:54:24;;;;;;;51.67;29.13;;;6.70;99.90;;;;;;5013138;28;20449;-67
2022/11/14 07:56:50;;;;;;;52.53;29.38;;;6.70;99.90;;;;;;5014800;28;20461;-67
2022/11/14 07:59:15;;;;;;;47.97;28.65;;;6.60;99.90;;;;;;5013732;28;20389;-67
2022/11/14 08:01:41;;;;;;;50.08;29.77;;;6.70;99.90;;;;;;4990956;28;20048;-67
2022/11/14 08:04:06;;;;;;;52.95;30.52;;;6.70;99.90;;;;;;5013166;28;20052;-67
2022/11/14 08:06:32;;;;;;;50.58;29.50;;;6.70;99.90;;;;;;5012988;28;20045;-67
2022/11/14 08:08:57;;;;;;;48.22;28.35;;;6.60;99.90;;;;;;4988112;28;20494;-67
2022/11/14 08:14:07;;;;;;;50.50;28.95;;;6.80;99.90;;;;;;5009743;28;20038;-67
2022/11/14 08:16:32;;;;;;;47.42;27.08;;;6.70;99.90;;;;;;4991176;28;20519;-67
2022/11/14 08:18:58;;;;;;;49.45;28.42;;;6.80;99.90;;;;;;5007654;28;20070;-67
2022/11/14 08:21:24;;;;;;;48.58;27.92;;;6.80;99.90;;;;;;5001803;28;20453;-67
2022/11/14 08:23:49;;;;;;;46.90;26.05;;;6.80;99.90;;;;;;5011325;28;20038;-67
2022/11/14 08:26:15;;;;;;;43.75;26.95;;;6.90;99.90;;;;;;5010801;28;20040;-68
2022/11/14 08:28:40;;;;;;;46.63;29.17;;;7.00;99.90;;;;;;4997489;28;20172;-68
2022/11/14 08:31:06;;;;;;;45.50;26.45;;;7.00;99.90;;;;;;5014207;28;20029;-68
2022/11/14 08:33:32;;;;;;;46.17;26.42;;;7.00;99.90;;;;;;5013842;28;20398;-68
2022/11/14 08:36:05;;;;;;;45.15;26.45;;;6.90;99.90;;;;;;5022443;28;20045;-68
2022/11/14 08:38:32;;;;;;;46.60;26.85;;;7.00;99.90;;;;;;4995823;28;20045;-68
2022/11/14 08:41:01;;;;;;;44.38;27.10;;;7.00;99.90;;;;;;5011887;28;20042;-68
2022/11/14 08:43:28;;;;;;;46.33;26.58;;;6.90;99.90;;;;;;4981309;28;20383;-68
2022/11/14 08:45:57;;;;;;;44.88;26.70;;;6.90;99.90;;;;;;4992906;28;20037;-68
2022/11/14 08:48:23;;;;;;;48.83;27.88;;;7.00;99.90;;;;;;4978594;28;20042;-68
2022/11/14 08:50:48;;;;;;;43.30;26.02;;;6.90;99.90;;;;;;4990199;28;20045;-68
2022/11/14 08:53:14;;;;;;;41.67;24.65;;;6.90;99.90;;;;;;5014714;28;20048;-68
2022/11/14 08:55:47;;;;;;;45.95;26.60;;;7.00;99.90;;;;;;5014165;28;20042;-68
2022/11/14 08:58:13;;;;;;;43.15;26.17;;;7.10;99.90;;;;;;5001727;28;20038;-68
2022/11/14 09:00:38;;;;;;;46.17;28.95;;;7.10;99.90;;;;;;4997353;28;20077;-68
2022/11/14 09:03:08;;;;;;;46.70;29.08;;;7.10;99.90;;;;;;5013512;28;20082;-68
2022/11/14 09:05:35;;;;;;;47.40;27.58;;;7.00;99.90;;;;;;4997626;28;20045;-68
2022/11/14 09:08:01;;;;;;;47.08;28.25;;;7.00;99.90;;;;;;5010767;28;20475;-68
2022/11/14 09:10:26;;;;;;;42.40;26.35;;;7.00;99.90;;;;;;4994226;28;20042;-68
2022/11/14 09:12:56;;;;;;;42.13;26.85;;;7.10;99.90;;;;;;4993903;28;20066;-68
2022/11/14 09:15:22;;;;;;;44.20;26.77;;;7.10;99.90;;;;;;4994361;28;20487;-68
2022/11/14 09:17:51;;;;;;;38.40;23.08;;;7.00;99.90;;;;;;5011081;28;20071;-68
2022/11/14 09:20:17;;;;;;;41.10;25.20;;;7.00;99.90;;;;;;5013584;28;20038;-68
2022/11/14 09:22:43;;;;;;;42.33;26.77;;;7.00;99.90;;;;;;5012979;28;20117;-68
2022/11/14 09:25:08;;;;;;;42.58;25.40;;;7.00;99.90;;;;;;4997357;28;20120;-68
2022/11/14 09:27:34;;;;;;;39.65;25.40;;;7.00;99.90;;;;;;5011896;28;20044;-68
2022/11/14 09:29:59;;;;;;;44.00;25.83;;;7.20;99.90;;;;;;5013105;28;20042;-68
2022/11/14 09:32:25;;;;;;;44.25;27.17;;;7.20;99.90;;;;;;5013440;28;20042;-68
2022/11/14 09:34:51;;;;;;;41.13;26.02;;;7.20;99.90;;;;;;4996544;28;20052;-68
2022/11/14 09:37:16;;;;;;;45.65;27.40;;;7.30;99.90;;;;;;5011307;28;20041;-68
2022/11/14 09:39:42;;;;;;;41.83;26.88;;;7.30;99.90;;;;;;5011275;28;20092;-68
2022/11/14 09:42:07;;;;;;;44.55;27.08;;;7.40;99.90;;;;;;4995433;28;20037;-68
2022/11/14 09:44:43;;;;;;;41.55;25.52;;;7.40;99.90;;;;;;5012014;28;20038;-68
2022/11/14 09:47:13;;;;;;;43.70;26.80;;;7.40;99.90;;;;;;5011914;28;20120;-68
2022/11/14 09:49:42;;;;;;;41.92;25.90;;;7.40;99.90;;;;;;4996403;28;20046;-68
2022/11/14 09:52:36;;;;;;;42.22;27.25;;;7.50;99.90;;;;;;4996184;28;20524;-68
2022/11/14 09:55:12;;;;;;;42.78;27.77;;;7.40;99.90;;;;;;4997065;28;20494;-68
2022/11/14 09:57:42;;;;;;;44.47;27.30;;;7.40;99.90;;;;;;5009464;28;20069;-68
2022/11/14 10:00:23;;;;;;;41.17;26.67;;;7.40;99.90;;;;;;5008315;28;20041;-68
2022/11/14 10:02:55;;;;;;;40.97;27.05;;;7.40;99.90;;;;;;5011715;28;20057;-68
2022/11/14 10:05:47;;;;;;;41.28;24.40;;;7.40;99.90;;;;;;5012851;28;20065;-68
2022/11/14 10:08:18;;;;;;;38.53;24.33;;;7.40;99.90;;;;;;5007384;28;20037;-68
2022/11/14 10:11:22;;;;;;;38.73;24.83;;;7.50;99.90;;;;;;5011181;28;20293;-68
2022/11/14 10:14:00;;;;;;;43.55;26.92;;;7.60;99.90;;;;;;5011112;28;20037;-68
2022/11/14 10:16:58;;;;;;;40.45;25.70;;;7.60;99.90;;;;;;4995416;28;20049;-68
2022/11/14 10:19:51;;;;;;;40.95;25.83;;;7.70;99.90;;;;;;4995002;28;20406;-68
2022/11/14 10:22:36;;;;;;;39.90;24.20;;;7.80;99.90;;;;;;4991690;28;20404;-68
2022/11/14 10:25:02;;;;;;;41.80;27.35;;;7.80;99.90;;;;;;5009172;28;20042;-68
2022/11/14 10:27:38;;;;;;;39.22;23.02;;;7.80;99.90;;;;;;4995350;28;20041;-68
2022/11/14 10:30:11;;;;;;;42.78;26.13;;;7.80;99.90;;;;;;5012654;28;20042;-68
2022/11/14 10:32:45;;;;;;;40.28;24.95;;;7.90;99.90;;;;;;4993553;28;20041;-68
2022/11/14 10:35:19;;;;;;;42.60;25.55;;;7.80;99.90;;;;;;5008286;28;20048;-68
2022/11/14 10:37:57;;;;;;;38.58;23.85;;;7.90;99.90;;;;;;5009813;28;20041;-68
2022/11/14 10:40:37;;;;;;;39.92;25.17;;;7.90;99.90;;;;;;5008315;28;20045;-68
2022/11/14 10:43:17;;;;;;;40.20;26.83;;;7.80;99.90;;;;;;4994364;28;20034;-68
2022/11/14 10:45:49;;;;;;;39.78;25.67;;;7.70;99.90;;;;;;5012129;28;20040;-68
2022/11/14 10:48:36;;;;;;;42.72;28.55;;;7.80;99.90;;;;;;4993482;28;20045;-68
2022/11/14 10:51:22;;;;;;;43.15;27.30;;;7.80;99.90;;;;;;4998571;28;20052;-68
2022/11/14 10:53:56;;;;;;;42.25;27.02;;;7.80;99.90;;;;;;5009461;28;20049;-68
2022/11/14 10:56:21;;;;;;;38.88;24.50;;;7.80;99.90;;;;;;4986131;28;20070;-68
2022/11/14 10:58:47;;;;;;;43.30;28.48;;;7.90;99.90;;;;;;5000214;28;20448;-68
2022/11/14 11:01:37;;;;;;;41.13;26.45;;;7.90;99.90;;;;;;5012055;28;20042;-68
2022/11/14 11:04:20;;;;;;;36.55;25.27;;;8.00;99.90;;;;;;4991077;28;20086;-68
2022/11/14 11:06:47;;;;;;;38.42;24.98;;;8.10;99.90;;;;;;4986505;28;20406;-68
2022/11/14 11:12:08;;;;;;;33.60;23.63;;;8.20;99.90;;;;;;4997645;28;20042;-68
2022/11/14 11:14:34;;;;;;;35.63;22.55;;;8.10;99.90;;;;;;4986861;28;20379;-69
2022/11/14 11:17:19;;;;;;;35.97;21.65;;;8.10;99.90;;;;;;5007163;28;20421;-68
2022/11/14 11:19:47;;;;;;;37.10;23.77;;;8.20;99.90;;;;;;4991078;28;20813;-68
2022/11/14 11:22:35;;;;;;;37.67;25.38;;;8.20;99.90;;;;;;4976197;28;20034;-68
2022/11/14 11:25:01;;;;;;;38.88;25.05;;;8.00;99.90;;;;;;5002397;28;20044;-68
2022/11/14 11:27:29;;;;;;;38.45;26.33;;;8.10;99.90;;;;;;4997101;28;20487;-68
2022/11/14 11:30:03;;;;;;;35.72;23.70;;;8.10;99.90;;;;;;5011193;28;20034;-68
2022/11/14 11:32:29;;;;;;;39.80;24.45;;;8.10;99.90;;;;;;5015896;28;20124;-68
2022/11/14 11:34:56;;;;;;;40.47;25.23;;;8.10;99.90;;;;;;4999136;28;20137;-68
2022/11/14 11:37:35;;;;;;;35.80;25.20;;;8.20;99.90;;;;;;5017825;28;20382;-68
2022/11/14 11:40:03;;;;;;;32.72;21.80;;;8.10;99.90;;;;;;5015613;28;20038;-68
2022/11/14 11:42:44;;;;;;;36.35;24.80;;;8.20;99.90;;;;;;5017068;28;20069;-68
2022/11/14 11:45:16;;;;;;;36.65;25.33;;;8.20;99.90;;;;;;4998698;28;20042;-68
2022/11/14 11:47:45;;;;;;;36.85;24.77;;;8.20;99.90;;;;;;4993883;28;20044;-68
2022/11/14 11:50:17;;;;;;;33.78;23.85;;;8.20;99.90;;;;;;4996704;28;20514;-69
2022/11/14 11:53:11;;;;;;;37.28;25.05;;;8.30;99.90;;;;;;5016836;28;20076;-68
2022/11/14 11:55:43;;;;;;;34.78;22.75;;;8.30;99.90;;;;;;5013690;28;20045;-68
2022/11/14 11:58:08;;;;;;;39.10;25.25;;;8.30;99.90;;;;;;5016086;28;20518;-68
2022/11/14 12:00:34;;;;;;;35.13;22.52;;;8.30;99.90;;;;;;4998713;28;20037;-68
2022/11/14 12:03:00;;;;;;;38.35;25.20;;;8.30;99.90;;;;;;4995704;28;20057;-68
2022/11/14 12:05:46;;;;;;;32.53;19.55;;;8.30;99.90;;;;;;5016110;28;20045;-68
2022/11/14 12:08:28;;;;;;;37.80;25.08;;;8.40;99.90;;;;;;4996363;28;20053;-68
2022/11/14 12:10:55;;;;;;;36.40;23.27;;;8.40;99.90;;;;;;4988167;28;20033;-69
2022/11/14 12:13:43;;;;;;;39.47;25.35;;;8.40;99.90;;;;;;5000291;28;20041;-68
2022/11/14 12:16:32;;;;;;;39.78;25.35;;;8.40;99.90;;;;;;5002524;28;20052;-68
2022/11/14 12:19:33;;;;;;;38.03;23.88;;;8.30;99.90;;;;;;4994556;28;20046;-68
2022/11/14 12:22:22;;;;;;;35.58;24.65;;;8.30;99.90;;;;;;4994237;28;20038;-68
2022/11/14 12:25:04;;;;;;;38.55;24.58;;;8.40;99.90;;;;;;5016951;28;20045;-68
2022/11/14 12:27:41;;;;;;;39.55;24.08;;;8.30;99.90;;;;;;4992203;28;20100;-68
2022/11/14 12:30:22;;;;;;;37.75;25.05;;;8.40;99.90;;;;;;4998427;28;20565;-68
2022/11/14 12:33:12;;;;;;;36.33;23.88;;;8.40;99.90;;;;;;4982520;28;20491;-68
2022/11/14 12:35:53;;;;;;;36.72;24.20;;;8.50;99.90;;;;;;5007140;28;20053;-68
2022/11/14 12:38:20;;;;;;;39.53;25.93;;;8.50;99.90;;;;;;5012483;28;20045;-68
2022/11/14 12:40:55;;;;;;;33.65;23.52;;;8.50;99.90;;;;;;4998487;28;20045;-68
2022/11/14 12:43:36;;;;;;;36.33;24.77;;;8.50;99.90;;;;;;5006959;28;20049;-68
2022/11/14 12:46:07;;;;;;;36.55;25.02;;;8.60;99.90;;;;;;5010089;28;20045;-68
2022/11/14 12:48:34;;;;;;;35.97;24.30;;;8.60;99.90;;;;;;4994285;28;20057;-68